createdAt,value
2023-03-13T00:00:27.777Z,4.40
2023-03-13T00:05:59.012Z,4.70
2023-03-13T00:15:11.842Z,4.70
2023-03-13T00:20:20.099Z,5.20
2023-03-13T00:25:27.328Z,5.50
2023-03-13T00:35:41.047Z,4.00
2023-03-13T00:40:48.285Z,4.20
2023-03-13T00:51:02.279Z,4.40
2023-03-13T00:56:12.136Z,3.80
2023-03-13T01:01:21.142Z,3.90
2023-03-13T01:06:30.280Z,3.60
2023-03-13T01:11:39.646Z,3.60
2023-03-13T01:16:47.588Z,3.70
2023-03-13T01:21:55.113Z,3.20
2023-03-13T01:27:03.043Z,3.20
2023-03-13T01:32:11.131Z,2.80
2023-03-13T01:37:18.552Z,3.40
2023-03-13T01:44:51.301Z,3.00
2023-03-13T01:49:58.918Z,2.90
2023-03-13T01:55:11.059Z,3.30
2023-03-13T02:00:24.096Z,2.70
2023-03-13T02:05:32.732Z,2.70
2023-03-13T02:10:46.430Z,2.70
2023-03-13T02:15:54.404Z,6.80
2023-03-13T02:21:12.038Z,3.30
2023-03-13T02:26:19.919Z,3.50
2023-03-13T02:31:29.509Z,2.40
2023-03-13T02:36:39.545Z,3.10
2023-03-13T02:41:51.186Z,3.30
2023-03-13T02:46:59.545Z,3.30
2023-03-13T02:52:14.515Z,3.40
2023-03-13T02:57:22.848Z,2.80
2023-03-13T03:02:30.661Z,2.40
2023-03-13T03:07:38.769Z,3.00
2023-03-13T03:12:46.325Z,2.90
2023-03-13T03:17:54.100Z,2.40
2023-03-13T03:23:01.820Z,2.60
2023-03-13T03:28:10.977Z,2.60
2023-03-13T03:33:27.841Z,2.90
2023-03-13T03:38:40.548Z,2.50
2023-03-13T03:43:50.422Z,2.50
2023-03-13T03:48:57.896Z,2.50
2023-03-13T03:54:05.607Z,2.70
2023-03-13T03:59:13.212Z,3.10
2023-03-13T04:04:20.705Z,3.30
2023-03-13T04:09:30.446Z,3.30
2023-03-13T04:14:39.132Z,3.60
2023-03-13T04:19:46.870Z,3.50
2023-03-13T04:24:54.726Z,2.80
2023-03-13T04:30:02.377Z,3.40
2023-03-13T04:35:11.091Z,3.20
2023-03-13T04:40:22.464Z,3.00
2023-03-13T04:45:30.240Z,3.20
2023-03-13T04:50:37.761Z,2.90
2023-03-13T04:55:46.437Z,3.80
2023-03-13T05:00:54.392Z,3.40
2023-03-13T05:06:02.414Z,3.20
2023-03-13T05:11:09.925Z,3.00
2023-03-13T05:16:19.754Z,3.60
2023-03-13T05:21:27.701Z,4.10
2023-03-13T05:26:35.434Z,6.70
2023-03-13T05:31:42.884Z,4.10
2023-03-13T05:36:50.290Z,3.80
2023-03-13T05:41:57.911Z,4.00
2023-03-13T05:47:05.368Z,4.00
2023-03-13T05:52:13.423Z,3.30
2023-03-13T05:57:21.810Z,3.50
2023-03-13T06:02:30.423Z,3.60
2023-03-13T06:07:38.095Z,3.70
2023-03-13T06:15:03.926Z,4.60
2023-03-13T06:20:14.835Z,3.80
2023-03-13T06:25:22.827Z,4.60
2023-03-13T06:30:30.962Z,4.70
2023-03-13T06:35:55.236Z,4.70
2023-03-13T06:41:03.382Z,5.10
2023-03-13T06:46:17.060Z,4.80
2023-03-13T06:51:27.757Z,5.20
2023-03-13T06:56:35.718Z,3.70
2023-03-13T07:01:43.620Z,5.40
2023-03-13T07:06:52.644Z,4.40
2023-03-13T07:12:03.698Z,4.60
2023-03-13T07:17:11.491Z,3.70
2023-03-13T07:22:24.267Z,3.80
2023-03-13T07:27:32.521Z,3.70
2023-03-13T07:32:40.305Z,4.00
2023-03-13T07:37:48.392Z,3.50
2023-03-13T07:42:56.050Z,4.50
2023-03-13T07:48:03.942Z,4.50
2023-03-13T07:53:14.224Z,4.10
2023-03-13T07:58:23.925Z,5.00
2023-03-13T08:03:33.930Z,3.90
2023-03-13T08:08:45.451Z,3.20
2023-03-13T08:13:53.615Z,3.80
2023-03-13T08:19:03.760Z,4.10
2023-03-13T08:24:13.925Z,3.60
2023-03-13T08:29:27.514Z,4.10
2023-03-13T08:34:37.964Z,4.70
2023-03-13T08:39:46.786Z,3.40
2023-03-13T08:44:56.169Z,3.80
2023-03-13T08:50:03.929Z,4.90
2023-03-13T08:55:13.224Z,4.30
2023-03-13T09:00:24.140Z,4.00
2023-03-13T09:05:32.341Z,4.40
2023-03-13T09:10:41.509Z,4.60
2023-03-13T09:15:55.317Z,3.60
2023-03-13T09:21:03.575Z,4.20
2023-03-13T09:26:11.684Z,4.70
2023-03-13T09:31:21.542Z,3.70
2023-03-13T09:36:30.797Z,3.50
2023-03-13T09:41:46.289Z,3.90
2023-03-13T09:47:05.935Z,4.00
2023-03-13T09:52:24.463Z,3.70
2023-03-13T09:57:42.486Z,3.00
2023-03-13T10:02:59.361Z,4.60
2023-03-13T10:08:16.697Z,3.90
2023-03-13T10:18:34.438Z,3.60
2023-03-13T10:23:50.750Z,3.50
2023-03-13T10:29:18.460Z,3.10
2023-03-13T10:34:29.956Z,4.20
2023-03-13T10:39:37.967Z,3.40
2023-03-13T10:44:48.065Z,3.20
2023-03-13T10:49:59.495Z,3.00
2023-03-13T10:55:09.463Z,2.90
2023-03-13T11:00:34.668Z,2.90
2023-03-13T11:05:44.670Z,2.20
2023-03-13T11:11:03.598Z,2.50
2023-03-13T11:16:22.409Z,2.80
2023-03-13T11:21:44.182Z,3.00
2023-03-13T11:27:05.138Z,2.30
2023-03-13T11:32:25.691Z,2.70
2023-03-13T11:37:40.227Z,2.50
2023-03-13T11:43:25.404Z,1.80
2023-03-13T11:49:08.372Z,2.50
2023-03-13T11:54:39.796Z,2.60
2023-03-13T11:59:58.503Z,2.80
2023-03-13T12:05:12.280Z,2.60
2023-03-13T12:10:27.791Z,3.60
2023-03-13T12:15:40.420Z,2.50
2023-03-13T12:20:56.712Z,2.80
2023-03-13T12:26:08.121Z,2.70
2023-03-13T12:31:28.119Z,2.00
2023-03-13T12:36:41.984Z,2.30
2023-03-13T12:41:57.338Z,2.40
2023-03-13T12:47:12.201Z,2.40
2023-03-13T12:52:50.274Z,2.70
2023-03-13T12:58:28.804Z,2.10
2023-03-13T13:03:39.468Z,2.40
2023-03-13T13:09:03.787Z,1.80
2023-03-13T13:15:00.513Z,2.50
2023-03-13T13:20:38.010Z,2.30
2023-03-13T13:25:46.220Z,2.10
2023-03-13T13:30:57.818Z,2.60
2023-03-13T13:36:30.301Z,2.30
2023-03-13T13:41:40.198Z,2.50
2023-03-13T13:46:49.735Z,2.30
2023-03-13T13:52:41.773Z,2.20
2023-03-13T13:57:51.485Z,3.00
2023-03-13T14:03:00.694Z,3.50
2023-03-13T14:08:17.916Z,2.30
2023-03-13T14:13:39.869Z,2.20
2023-03-13T14:18:47.762Z,2.30
2023-03-13T14:23:54.981Z,2.40
2023-03-13T14:29:06.659Z,2.50
2023-03-13T14:34:16.155Z,2.40
2023-03-13T14:39:38.508Z,3.10
2023-03-13T14:44:50.042Z,3.20
2023-03-13T14:50:02.714Z,3.00
2023-03-13T14:55:31.409Z,3.10
2023-03-13T15:00:41.911Z,2.50
2023-03-13T15:05:51.560Z,2.80
2023-03-13T15:11:00.296Z,2.70
2023-03-13T15:16:18.917Z,2.80
2023-03-13T15:21:30.289Z,2.90
2023-03-13T15:26:37.859Z,3.60
2023-03-13T15:31:45.346Z,2.80
2023-03-13T15:36:52.573Z,2.30
2023-03-13T15:41:59.863Z,3.60
2023-03-13T15:47:08.474Z,3.40
2023-03-13T15:52:20.723Z,3.40
2023-03-13T15:57:29.551Z,3.80
2023-03-13T16:02:36.837Z,3.60
2023-03-13T16:07:44.208Z,3.70
2023-03-13T16:12:51.889Z,3.80
2023-03-13T16:17:59.174Z,3.70
2023-03-13T16:23:06.401Z,3.70
2023-03-13T16:28:15.692Z,3.60
2023-03-13T16:33:22.943Z,4.00
2023-03-13T16:38:30.338Z,3.70
2023-03-13T16:43:37.835Z,3.40
2023-03-13T16:48:45.430Z,3.10
2023-03-13T16:53:54.503Z,3.80
2023-03-13T16:59:02.405Z,4.00
2023-03-13T17:04:10.321Z,4.20
2023-03-13T17:09:18.855Z,4.00
2023-03-13T17:14:26.483Z,4.30
2023-03-13T17:19:33.792Z,3.60
2023-03-13T17:24:41.561Z,3.50
2023-03-13T17:29:49.274Z,4.20
2023-03-13T17:34:56.717Z,4.20
2023-03-13T17:40:04.472Z,4.10
2023-03-13T17:45:13.749Z,4.10
2023-03-13T17:50:24.631Z,4.40
2023-03-13T17:55:32.411Z,4.00
2023-03-13T18:00:45.148Z,4.80
2023-03-13T18:05:52.492Z,4.30
2023-03-13T18:11:00.198Z,5.00
2023-03-13T18:16:17.486Z,5.30
2023-03-13T18:21:25.644Z,6.00
2023-03-13T18:26:35.188Z,5.80
2023-03-13T18:31:43.996Z,5.50
2023-03-13T18:36:51.624Z,6.00
2023-03-13T18:41:59.676Z,5.90
2023-03-13T18:47:15.452Z,5.80
2023-03-13T18:52:22.923Z,6.20
2023-03-13T18:57:31.522Z,6.10
2023-03-13T19:02:38.613Z,7.40
2023-03-13T19:07:46.124Z,8.00
2023-03-13T19:12:53.907Z,8.00
2023-03-13T19:18:03.905Z,9.20
2023-03-13T19:23:13.055Z,10.30
2023-03-13T19:28:21.373Z,8.50
2023-03-13T19:33:28.787Z,8.40
2023-03-13T19:38:36.599Z,9.30
2023-03-13T19:43:45.680Z,8.20
2023-03-13T19:48:55.194Z,9.10
2023-03-13T19:54:02.613Z,9.80
2023-03-13T19:59:16.015Z,9.20
2023-03-13T20:04:23.335Z,9.30
2023-03-13T20:09:31.159Z,8.40
2023-03-13T20:14:38.639Z,9.70
2023-03-13T20:19:46.702Z,7.80
2023-03-13T20:24:56.156Z,8.00
2023-03-13T20:30:04.285Z,9.50
2023-03-13T20:35:14.307Z,8.90
2023-03-13T20:40:21.829Z,10.60
2023-03-13T20:45:30.426Z,9.80
2023-03-13T20:50:37.861Z,9.50
2023-03-13T20:55:46.112Z,8.70
2023-03-13T21:00:53.415Z,8.70
2023-03-13T21:06:01.124Z,9.60
2023-03-13T21:11:16.500Z,9.10
2023-03-13T21:16:24.089Z,9.00
2023-03-13T21:21:32.651Z,9.60
2023-03-13T21:26:40.235Z,9.30
2023-03-13T21:31:47.843Z,9.00
2023-03-13T21:36:55.483Z,7.60
2023-03-13T21:42:03.005Z,7.60
2023-03-13T21:47:10.603Z,10.20
2023-03-13T21:52:18.100Z,9.50
2023-03-13T21:57:26.025Z,9.70
2023-03-13T22:02:33.913Z,9.50
2023-03-13T22:07:41.339Z,7.80
2023-03-13T22:12:48.965Z,10.20
2023-03-13T22:17:56.785Z,8.90
2023-03-13T22:23:04.772Z,8.80
2023-03-13T22:28:13.101Z,8.70
2023-03-13T22:33:20.710Z,8.00
2023-03-13T22:38:28.332Z,7.30
2023-03-13T22:43:36.743Z,8.10
2023-03-13T22:48:44.369Z,9.80
2023-03-13T22:53:51.768Z,8.80
2023-03-13T22:58:59.306Z,8.00
2023-03-13T23:04:06.865Z,8.60
2023-03-13T23:09:14.663Z,9.00
2023-03-13T23:14:22.007Z,9.20
2023-03-13T23:19:30.318Z,9.20
2023-03-13T23:24:38.232Z,10.00
2023-03-13T23:29:45.748Z,7.80
2023-03-13T23:34:53.262Z,7.10
2023-03-13T23:45:09.285Z,4.60
2023-03-13T23:50:17.486Z,4.70
2023-03-13T23:55:24.808Z,3.60
